createdAt,value
2018-12-13T00:02:07.402Z,4.03
2018-12-13T00:04:36.648Z,3.05
2018-12-13T00:07:05.785Z,5.45
2018-12-13T00:09:35.507Z,7.55
2018-12-13T00:12:04.631Z,4.08
2018-12-13T00:14:33.703Z,3.77
2018-12-13T00:17:02.896Z,4.12
2018-12-13T00:19:32.581Z,2.95
2018-12-13T00:22:01.926Z,4.70
2018-12-13T00:24:31.039Z,3.47
2018-12-13T00:27:00.742Z,3.30
2018-12-13T00:29:30.361Z,4.10
2018-12-13T00:32:00.348Z,3.10
2018-12-13T00:34:30.563Z,5.03
2018-12-13T00:37:00.172Z,3.33
2018-12-13T00:39:29.949Z,4.08
2018-12-13T00:41:59.684Z,2.47
2018-12-13T00:44:29.355Z,2.62
2018-12-13T00:46:58.855Z,4.33
2018-12-13T00:49:29.306Z,3.17
2018-12-13T00:51:58.572Z,3.35
2018-12-13T00:54:28.850Z,2.65
2018-12-13T00:56:59.367Z,3.12
2018-12-13T00:59:28.443Z,4.67
2018-12-13T01:01:58.555Z,2.52
2018-12-13T01:04:28.700Z,2.55
2018-12-13T01:06:58.611Z,2.87
2018-12-13T01:09:27.680Z,2.58
2018-12-13T01:11:57.280Z,4.33
2018-12-13T01:14:26.378Z,3.70
2018-12-13T01:16:55.461Z,2.55
2018-12-13T01:19:25.604Z,3.62
2018-12-13T01:21:54.696Z,2.80
2018-12-13T01:24:23.763Z,3.15
2018-12-13T01:26:53.959Z,2.77
2018-12-13T01:29:23.467Z,4.78
2018-12-13T01:31:53.238Z,3.37
2018-12-13T01:34:23.001Z,2.15
2018-12-13T01:36:53.417Z,2.50
2018-12-13T01:39:22.633Z,2.17
2018-12-13T01:41:51.852Z,3.00
2018-12-13T01:44:21.032Z,2.22
2018-12-13T01:46:50.223Z,1.90
2018-12-13T01:49:19.656Z,3.42
2018-12-13T01:51:48.802Z,2.45
2018-12-13T01:54:19.025Z,2.12
2018-12-13T01:56:49.552Z,3.25
2018-12-13T01:59:18.612Z,2.83
2018-12-13T02:01:47.715Z,2.92
2018-12-13T02:04:16.803Z,2.52
2018-12-13T02:06:45.929Z,3.40
2018-12-13T02:09:15.099Z,2.52
2018-12-13T02:11:44.382Z,3.02
2018-12-13T02:14:14.197Z,1.98
2018-12-13T02:16:43.427Z,1.92
2018-12-13T02:19:13.567Z,2.65
2018-12-13T02:21:42.632Z,2.00
2018-12-13T02:24:12.603Z,2.80
2018-12-13T02:26:41.702Z,1.75
2018-12-13T02:29:11.892Z,3.52
2018-12-13T02:31:41.902Z,2.90
2018-12-13T02:34:11.111Z,2.65
2018-12-13T02:36:41.225Z,1.85
2018-12-13T02:39:10.449Z,2.47
2018-12-13T02:41:39.971Z,2.20
2018-12-13T02:44:09.027Z,2.42
2018-12-13T02:46:39.027Z,2.30
2018-12-13T02:49:09.538Z,2.08
2018-12-13T02:51:38.618Z,4.17
2018-12-13T02:54:09.066Z,2.00
2018-12-13T02:56:40.553Z,2.90
2018-12-13T02:59:10.368Z,1.60
2018-12-13T03:01:39.446Z,2.22
2018-12-13T03:04:09.013Z,2.70
2018-12-13T03:06:39.686Z,2.50
2018-12-13T03:09:08.778Z,1.87
2018-12-13T03:11:38.096Z,2.08
2018-12-13T03:14:07.216Z,2.17
2018-12-13T03:16:36.764Z,2.42
2018-12-13T03:19:06.356Z,2.20
2018-12-13T03:21:36.214Z,1.90
2018-12-13T03:24:05.343Z,3.35
2018-12-13T03:26:35.064Z,1.75
2018-12-13T03:29:05.539Z,1.85
2018-12-13T03:31:35.872Z,2.62
2018-12-13T03:34:05.486Z,2.83
2018-12-13T03:36:35.502Z,2.55
2018-12-13T03:39:07.425Z,1.85
2018-12-13T03:41:36.784Z,1.52
2018-12-13T03:44:06.768Z,2.77
2018-12-13T03:46:35.921Z,1.85
2018-12-13T03:49:04.998Z,2.52
2018-12-13T03:51:34.208Z,1.85
2018-12-13T03:54:04.179Z,2.72
2018-12-13T03:56:34.198Z,2.15
2018-12-13T03:59:03.468Z,1.90
2018-12-13T04:01:32.647Z,1.50
2018-12-13T04:04:02.608Z,2.02
2018-12-13T04:06:32.237Z,1.90
2018-12-13T04:09:02.971Z,4.03
2018-12-13T04:11:32.079Z,2.17
2018-12-13T04:14:01.757Z,1.50
2018-12-13T04:16:32.161Z,2.37
2018-12-13T04:19:02.231Z,2.25
2018-12-13T04:21:31.483Z,2.45
2018-12-13T04:24:00.609Z,2.80
2018-12-13T04:26:30.191Z,1.57
2018-12-13T04:29:00.230Z,2.47
2018-12-13T04:31:29.834Z,2.75
2018-12-13T04:33:59.037Z,1.70
2018-12-13T04:36:29.082Z,2.55
2018-12-13T04:38:58.935Z,1.90
2018-12-13T04:41:28.001Z,2.17
2018-12-13T04:43:57.272Z,2.08
2018-12-13T04:46:26.475Z,2.02
2018-12-13T04:48:55.622Z,2.27
2018-12-13T04:51:24.875Z,1.42
2018-12-13T04:53:55.380Z,2.12
2018-12-13T04:56:25.691Z,2.30
2018-12-13T04:58:56.019Z,1.35
2018-12-13T05:01:25.773Z,2.87
2018-12-13T05:03:54.847Z,2.15
2018-12-13T05:06:23.955Z,2.67
2018-12-13T05:08:53.792Z,2.27
2018-12-13T05:11:22.850Z,1.62
2018-12-13T05:13:51.919Z,1.47
2018-12-13T05:16:21.616Z,1.80
2018-12-13T05:18:51.317Z,1.77
2018-12-13T05:21:20.525Z,2.30
2018-12-13T05:23:50.495Z,2.90
2018-12-13T05:26:20.371Z,1.75
2018-12-13T05:28:50.075Z,2.42
2018-12-13T05:31:20.512Z,1.72
2018-12-13T05:33:50.265Z,1.45
2018-12-13T05:36:20.153Z,2.12
2018-12-13T05:38:49.903Z,2.47
2018-12-13T05:41:18.967Z,1.75
2018-12-13T05:43:53.012Z,2.17
2018-12-13T05:46:22.423Z,1.57
2018-12-13T05:48:52.687Z,2.12
2018-12-13T05:51:21.784Z,1.85
2018-12-13T05:53:51.789Z,2.72
2018-12-13T05:56:21.855Z,2.30
2018-12-13T05:58:51.812Z,2.72
2018-12-13T06:01:22.560Z,1.65
2018-12-13T06:03:52.556Z,2.52
2018-12-13T06:06:21.644Z,2.02
2018-12-13T06:08:50.748Z,1.92
2018-12-13T06:11:20.583Z,2.20
2018-12-13T06:13:49.859Z,2.52
2018-12-13T06:16:19.082Z,6.35
2018-12-13T06:18:49.088Z,4.50
2018-12-13T06:21:18.982Z,6.22
2018-12-13T06:23:48.471Z,2.85
2018-12-13T06:26:17.528Z,6.10
2018-12-13T06:28:48.015Z,7.85
2018-12-13T06:31:18.064Z,6.08
2018-12-13T06:33:47.341Z,7.00
2018-12-13T06:36:16.584Z,6.15
2018-12-13T06:38:46.984Z,19.35
2018-12-13T06:41:16.255Z,16.05
2018-12-13T06:43:46.045Z,21.27
2018-12-13T06:46:15.128Z,14.45
2018-12-13T06:48:44.260Z,13.28
2018-12-13T06:51:13.412Z,11.90
2018-12-13T06:53:44.403Z,12.33
2018-12-13T06:56:14.109Z,9.35
2018-12-13T06:58:44.281Z,11.33
2018-12-13T07:01:14.055Z,10.03
2018-12-13T07:03:43.152Z,14.07
2018-12-13T07:06:13.231Z,8.90
2018-12-13T07:08:42.333Z,4.42
2018-12-13T07:11:11.397Z,8.43
2018-12-13T07:13:40.679Z,10.40
2018-12-13T07:16:10.988Z,6.62
2018-12-13T07:18:40.707Z,16.65
2018-12-13T07:21:10.877Z,6.62
2018-12-13T07:23:40.020Z,11.18
2018-12-13T07:26:09.266Z,9.85
2018-12-13T07:28:39.177Z,5.33
2018-12-13T07:31:09.658Z,6.95
2018-12-13T07:33:39.604Z,6.95
2018-12-13T07:36:08.727Z,5.87
2018-12-13T07:38:38.777Z,6.08
2018-12-13T07:41:07.825Z,3.75
2018-12-13T07:43:37.590Z,4.05
2018-12-13T07:46:06.647Z,4.53
2018-12-13T07:48:36.059Z,4.17
2018-12-13T07:51:05.152Z,6.42
2018-12-13T07:53:35.410Z,6.15
2018-12-13T07:56:05.099Z,4.75
2018-12-13T07:58:35.052Z,4.37
2018-12-13T08:01:04.244Z,5.58
2018-12-13T08:03:33.297Z,3.67
2018-12-13T08:06:02.992Z,3.42
2018-12-13T08:08:32.146Z,4.17
2018-12-13T08:11:01.836Z,3.92
2018-12-13T08:13:30.920Z,4.65
2018-12-13T08:16:00.951Z,4.33
2018-12-13T08:18:30.760Z,5.22
2018-12-13T08:21:01.027Z,6.35
2018-12-13T08:23:30.088Z,5.53
2018-12-13T08:25:59.199Z,4.58
2018-12-13T08:28:29.516Z,8.73
2018-12-13T08:30:59.619Z,5.30
2018-12-13T08:33:28.748Z,4.83
2018-12-13T08:35:57.947Z,4.78
2018-12-13T08:38:27.726Z,5.33
2018-12-13T08:40:56.831Z,4.90
2018-12-13T08:43:26.945Z,8.05
2018-12-13T08:45:56.701Z,5.03
2018-12-13T08:48:25.820Z,5.00
2018-12-13T08:50:55.489Z,3.55
2018-12-13T08:53:25.773Z,4.40
2018-12-13T08:55:56.456Z,5.12
2018-12-13T08:58:26.164Z,5.72
2018-12-13T09:00:55.363Z,2.67
2018-12-13T09:03:24.776Z,3.22
2018-12-13T09:05:54.531Z,5.75
2018-12-13T09:08:23.651Z,4.62
2018-12-13T09:10:53.035Z,5.20
2018-12-13T09:13:23.056Z,11.53
2018-12-13T09:15:53.181Z,7.00
2018-12-13T09:18:22.269Z,6.12
2018-12-13T09:20:51.336Z,5.95
2018-12-13T09:23:20.562Z,4.62
2018-12-13T09:25:49.820Z,6.42
2018-12-13T09:28:19.927Z,5.40
2018-12-13T09:30:50.092Z,5.60
2018-12-13T09:33:19.203Z,3.55
2018-12-13T09:35:49.856Z,3.87
2018-12-13T09:38:19.637Z,5.33
2018-12-13T09:40:49.367Z,7.22
2018-12-13T09:43:18.631Z,4.00
2018-12-13T09:45:47.768Z,5.15
2018-12-13T09:48:16.967Z,4.97
2018-12-13T09:50:46.286Z,3.85
2018-12-13T09:53:17.449Z,4.10
2018-12-13T09:55:47.397Z,3.85
2018-12-13T09:58:18.024Z,5.70
2018-12-13T10:00:47.179Z,3.98
2018-12-13T10:03:16.247Z,3.77
2018-12-13T10:05:45.374Z,4.33
2018-12-13T10:08:15.177Z,6.53
2018-12-13T10:10:46.551Z,4.03
2018-12-13T10:13:15.659Z,3.62
2018-12-13T10:15:44.915Z,5.40
2018-12-13T10:18:14.003Z,5.37
2018-12-13T10:20:43.083Z,4.20
2018-12-13T10:23:12.215Z,6.03
2018-12-13T10:25:41.636Z,4.37
2018-12-13T10:28:12.744Z,3.30
2018-12-13T10:30:43.036Z,3.60
2018-12-13T10:33:12.202Z,4.87
2018-12-13T10:35:41.531Z,4.33
2018-12-13T10:38:11.340Z,3.85
2018-12-13T10:40:40.917Z,3.52
2018-12-13T10:43:10.356Z,4.42
2018-12-13T10:45:40.401Z,2.95
2018-12-13T10:48:09.483Z,3.77
2018-12-13T10:50:38.933Z,3.20
2018-12-13T10:53:09.590Z,5.20
2018-12-13T10:55:39.039Z,3.80
2018-12-13T10:58:08.796Z,4.20
2018-12-13T11:00:42.285Z,5.25
2018-12-13T11:03:22.888Z,3.30
2018-12-13T11:05:51.980Z,4.92
2018-12-13T11:08:25.274Z,5.40
2018-12-13T11:10:54.378Z,4.25
2018-12-13T11:13:24.300Z,6.55
2018-12-13T11:15:55.148Z,4.10
2018-12-13T11:18:24.348Z,3.27
2018-12-13T11:20:53.642Z,6.20
2018-12-13T11:23:22.890Z,4.65
2018-12-13T11:25:52.725Z,3.70
2018-12-13T11:29:35.152Z,4.65
2018-12-13T11:32:07.372Z,9.60
2018-12-13T11:34:44.062Z,4.83
2018-12-13T11:37:15.743Z,4.17
2018-12-13T11:39:44.770Z,8.00
2018-12-13T11:42:14.877Z,7.20
2018-12-13T11:44:44.100Z,8.00
2018-12-13T11:47:13.247Z,6.87
2018-12-13T11:49:42.835Z,6.92
2018-12-13T11:52:11.929Z,9.08
2018-12-13T11:54:44.111Z,9.00
2018-12-13T11:57:13.899Z,8.10
2018-12-13T11:59:43.403Z,8.20
2018-12-13T12:02:12.543Z,8.58
2018-12-13T12:04:41.616Z,7.78
2018-12-13T12:07:11.078Z,5.22
2018-12-13T12:09:40.273Z,5.63
2018-12-13T12:12:09.432Z,5.87
2018-12-13T12:14:38.591Z,5.55
2018-12-13T12:17:08.005Z,4.30
2018-12-13T12:19:37.188Z,8.30
2018-12-13T12:22:07.111Z,4.97
2018-12-13T12:24:36.183Z,4.53
2018-12-13T12:27:06.236Z,7.30
2018-12-13T12:29:36.032Z,6.15
2018-12-13T12:32:06.291Z,4.90
2018-12-13T12:34:35.416Z,5.40
2018-12-13T12:37:05.694Z,5.37
2018-12-13T12:39:34.775Z,5.35
2018-12-13T12:42:05.205Z,6.03
2018-12-13T12:44:37.534Z,5.40
2018-12-13T12:47:07.396Z,6.80
2018-12-13T12:49:37.627Z,6.35
2018-12-13T12:52:06.738Z,5.97
2018-12-13T12:54:36.651Z,6.78
2018-12-13T12:57:06.414Z,6.05
2018-12-13T12:59:35.680Z,5.83
2018-12-13T13:02:05.018Z,7.50
2018-12-13T13:04:34.962Z,6.95
2018-12-13T13:07:06.443Z,4.87
2018-12-13T13:09:35.690Z,6.22
2018-12-13T13:12:04.830Z,5.28
2018-12-13T13:14:33.949Z,5.53
2018-12-13T13:17:03.563Z,7.12
2018-12-13T13:19:32.741Z,6.25
2018-12-13T13:22:02.761Z,5.67
2018-12-13T13:24:32.416Z,7.30
2018-12-13T13:27:07.103Z,5.60
2018-12-13T13:29:37.717Z,5.28
2018-12-13T13:32:07.155Z,5.97
2018-12-13T13:34:36.284Z,5.72
2018-12-13T13:37:05.880Z,4.95
2018-12-13T13:39:34.962Z,5.03
2018-12-13T13:42:04.789Z,6.20
2018-12-13T13:44:38.788Z,5.30
2018-12-13T13:47:08.209Z,4.83
2018-12-13T13:49:37.279Z,6.30
2018-12-13T13:52:06.443Z,5.50
2018-12-13T13:54:36.057Z,5.30
2018-12-13T13:57:06.030Z,4.72
2018-12-13T13:59:37.554Z,5.75
2018-12-13T14:02:07.287Z,7.30
2018-12-13T14:04:36.356Z,12.93
2018-12-13T14:07:06.103Z,5.33
2018-12-13T14:09:38.021Z,13.93
2018-12-13T14:12:07.047Z,5.58
2018-12-13T14:14:36.853Z,6.47
2018-12-13T14:17:06.909Z,5.10
2018-12-13T14:19:36.096Z,6.90
2018-12-13T14:22:06.003Z,5.37
2018-12-13T14:24:35.241Z,7.15
2018-12-13T14:27:05.312Z,4.95
2018-12-13T14:29:35.090Z,6.45
2018-12-13T14:32:04.813Z,6.03
2018-12-13T14:34:34.085Z,6.95
2018-12-13T14:37:04.007Z,6.17
2018-12-13T14:39:33.128Z,5.47
2018-12-13T14:42:03.047Z,6.85
2018-12-13T14:44:32.193Z,5.55
2018-12-13T14:47:01.326Z,6.72
2018-12-13T14:49:31.283Z,6.15
2018-12-13T14:52:00.440Z,7.87
2018-12-13T14:54:30.504Z,6.42
2018-12-13T14:57:00.582Z,5.50
2018-12-13T14:59:31.383Z,5.85
2018-12-13T15:02:00.854Z,6.35
2018-12-13T15:04:30.585Z,5.90
2018-12-13T15:07:01.247Z,6.35
2018-12-13T15:09:31.979Z,5.90
2018-12-13T15:12:01.206Z,6.00
2018-12-13T15:14:30.318Z,4.67
2018-12-13T15:17:00.929Z,5.47
2018-12-13T15:19:30.071Z,6.58
2018-12-13T15:21:59.347Z,5.03
2018-12-13T15:24:29.471Z,7.03
2018-12-13T15:26:59.380Z,6.17
2018-12-13T15:29:29.403Z,6.15
2018-12-13T15:31:59.565Z,6.20
2018-12-13T15:34:28.953Z,5.70
2018-12-13T15:36:58.037Z,6.15
2018-12-13T15:39:27.115Z,5.72
2018-12-13T15:41:56.339Z,5.58
2018-12-13T15:44:25.515Z,4.72
2018-12-13T15:46:54.659Z,5.83
2018-12-13T15:49:24.956Z,6.55
2018-12-13T15:51:54.027Z,5.42
2018-12-13T15:54:24.560Z,6.35
2018-12-13T15:56:54.259Z,5.33
2018-12-13T15:59:24.173Z,9.05
2018-12-13T16:01:53.251Z,12.23
2018-12-13T16:04:22.344Z,6.65
2018-12-13T16:06:51.448Z,5.55
2018-12-13T16:09:21.483Z,5.62
2018-12-13T16:11:52.223Z,7.17
2018-12-13T16:14:21.744Z,5.92
2018-12-13T16:16:52.139Z,4.75
2018-12-13T16:19:22.619Z,5.50
2018-12-13T16:21:51.928Z,4.72
2018-12-13T16:24:21.183Z,5.10
2018-12-13T16:26:50.265Z,5.50
2018-12-13T16:29:20.606Z,5.45
2018-12-13T16:31:50.075Z,5.37
2018-12-13T16:34:19.738Z,6.30
2018-12-13T16:36:49.332Z,4.85
2018-12-13T16:39:18.952Z,4.95
2018-12-13T16:41:49.243Z,5.22
2018-12-13T16:44:19.035Z,7.03
2018-12-13T16:46:48.649Z,5.05
2018-12-13T16:49:18.905Z,4.33
2018-12-13T16:51:48.467Z,5.12
2018-12-13T16:54:18.178Z,4.30
2018-12-13T16:56:47.990Z,5.85
2018-12-13T16:59:17.080Z,5.22
2018-12-13T17:01:47.028Z,6.25
2018-12-13T17:04:16.814Z,5.37
2018-12-13T17:06:46.071Z,7.10
2018-12-13T17:09:15.329Z,5.87
2018-12-13T17:11:45.020Z,5.28
2018-12-13T17:14:14.747Z,7.53
2018-12-13T17:16:43.948Z,5.35
2018-12-13T17:19:13.671Z,7.45
2018-12-13T17:21:42.756Z,5.45
2018-12-13T17:24:12.394Z,5.60
2018-12-13T17:26:41.451Z,5.60
2018-12-13T17:29:11.996Z,8.13
2018-12-13T17:31:42.512Z,6.50
2018-12-13T17:34:12.643Z,10.10
2018-12-13T17:36:44.462Z,5.12
2018-12-13T17:39:13.556Z,4.40
2018-12-13T17:41:42.628Z,7.10
2018-12-13T17:44:11.908Z,9.58
2018-12-13T17:46:42.032Z,8.00
2018-12-13T17:49:11.154Z,10.23
2018-12-13T17:51:40.926Z,11.95
2018-12-13T17:54:10.593Z,17.25
2018-12-13T17:56:40.616Z,21.00
2018-12-13T17:59:10.363Z,17.60
2018-12-13T18:01:40.063Z,19.20
2018-12-13T18:04:10.168Z,13.25
2018-12-13T18:06:39.313Z,14.65
2018-12-13T18:09:09.404Z,13.22
2018-12-13T18:11:38.618Z,18.20
2018-12-13T18:14:07.695Z,20.20
2018-12-13T18:16:43.254Z,12.98
2018-12-13T18:19:08.855Z,10.00
2018-12-13T18:21:38.021Z,8.70
2018-12-13T18:24:08.476Z,9.00
2018-12-13T18:26:38.441Z,8.63
2018-12-13T18:29:08.398Z,8.80
2018-12-13T18:31:38.223Z,9.63
2018-12-13T18:34:07.356Z,8.28
2018-12-13T18:36:37.060Z,8.80
2018-12-13T18:39:08.011Z,6.92
2018-12-13T18:41:37.394Z,8.65
2018-12-13T18:44:08.612Z,7.00
2018-12-13T18:46:37.784Z,11.22
2018-12-13T18:49:07.643Z,6.67
2018-12-13T18:51:36.884Z,6.83
2018-12-13T18:54:06.846Z,10.90
2018-12-13T18:56:37.368Z,11.57
2018-12-13T18:59:07.800Z,17.60
2018-12-13T19:01:37.296Z,11.60
2018-12-13T19:04:06.581Z,10.55
2018-12-13T19:06:36.214Z,12.95
2018-12-13T19:09:07.573Z,11.65
2018-12-13T19:11:36.673Z,12.03
2018-12-13T19:14:06.460Z,13.20
2018-12-13T19:16:36.604Z,10.78
2018-12-13T19:19:06.839Z,10.23
2018-12-13T19:21:35.991Z,8.95
2018-12-13T19:24:05.956Z,8.88
2018-12-13T19:26:35.207Z,7.10
2018-12-13T19:29:04.885Z,9.98
2018-12-13T19:31:34.568Z,8.73
2018-12-13T19:34:04.545Z,8.00
2018-12-13T19:36:33.676Z,12.45
2018-12-13T19:39:03.023Z,9.85
2018-12-13T19:41:32.860Z,9.95
2018-12-13T19:44:03.268Z,8.60
2018-12-13T19:46:32.400Z,11.40
2018-12-13T19:49:03.253Z,10.13
2018-12-13T19:51:32.919Z,7.55
2018-12-13T19:54:02.509Z,7.90
2018-12-13T19:56:32.240Z,12.75
2018-12-13T19:59:02.375Z,6.53
2018-12-13T20:01:31.587Z,7.15
2018-12-13T20:04:06.360Z,7.08
2018-12-13T20:06:36.072Z,9.50
2018-12-13T20:09:07.957Z,8.53
2018-12-13T20:11:37.770Z,6.17
2018-12-13T20:14:07.576Z,6.60
2018-12-13T20:16:37.401Z,6.70
2018-12-13T20:19:06.547Z,7.40
2018-12-13T20:21:35.640Z,6.33
2018-12-13T20:24:04.865Z,6.67
2018-12-13T20:26:34.372Z,5.92
2018-12-13T20:29:05.233Z,7.60
2018-12-13T20:31:35.551Z,7.30
2018-12-13T20:34:06.786Z,7.65
2018-12-13T20:36:36.819Z,6.00
2018-12-13T20:39:09.149Z,7.83
2018-12-13T20:41:39.343Z,6.60
2018-12-13T20:44:08.611Z,6.10
2018-12-13T20:46:38.641Z,5.97
2018-12-13T20:49:07.920Z,7.50
2018-12-13T20:51:37.232Z,5.80
2018-12-13T20:54:07.048Z,6.70
2018-12-13T20:56:36.877Z,6.37
2018-12-13T20:59:07.123Z,6.30
2018-12-13T21:01:36.991Z,6.85
2018-12-13T21:04:06.111Z,7.15
2018-12-13T21:06:36.027Z,8.15
2018-12-13T21:09:07.475Z,10.50
2018-12-13T21:11:36.827Z,6.75
2018-12-13T21:14:06.394Z,7.87
2018-12-13T21:16:35.963Z,8.03
2018-12-13T21:19:06.514Z,7.60
2018-12-13T21:21:35.588Z,7.22
2018-12-13T21:24:05.526Z,5.00
2018-12-13T21:26:34.778Z,7.70
2018-12-13T21:29:04.440Z,6.60
2018-12-13T21:31:34.741Z,6.65
2018-12-13T21:34:04.244Z,6.35
2018-12-13T21:36:33.351Z,8.80
2018-12-13T21:39:02.653Z,6.17
2018-12-13T21:41:32.417Z,5.62
2018-12-13T21:44:02.105Z,5.92
2018-12-13T21:46:31.291Z,5.80
2018-12-13T21:49:01.102Z,6.92
2018-12-13T21:51:31.276Z,6.65
2018-12-13T21:54:01.085Z,6.90
2018-12-13T21:56:31.101Z,7.40
2018-12-13T21:59:03.937Z,7.00
2018-12-13T22:01:32.507Z,5.12
2018-12-13T22:04:02.282Z,5.60
2018-12-13T22:06:32.287Z,6.70
2018-12-13T22:09:02.549Z,7.28
2018-12-13T22:11:32.288Z,6.60
2018-12-13T22:14:01.481Z,6.03
2018-12-13T22:16:31.666Z,6.62
2018-12-13T22:19:00.936Z,5.58
2018-12-13T22:21:30.832Z,6.75
2018-12-13T22:24:01.091Z,5.50
2018-12-13T22:26:30.183Z,7.85
2018-12-13T22:29:00.237Z,6.08
2018-12-13T22:31:29.829Z,8.60
2018-12-13T22:34:00.261Z,6.28
2018-12-13T22:36:29.447Z,5.42
2018-12-13T22:38:59.567Z,6.17
2018-12-13T22:41:29.871Z,7.33
2018-12-13T22:43:58.895Z,5.70
2018-12-13T22:46:28.549Z,7.10
2018-12-13T22:48:57.615Z,6.75
2018-12-13T22:51:27.603Z,5.87
2018-12-13T22:53:57.312Z,7.78
2018-12-13T22:56:27.953Z,6.85
2018-12-13T22:58:57.757Z,7.58
2018-12-13T23:01:27.775Z,9.15
2018-12-13T23:03:56.831Z,7.40
2018-12-13T23:06:27.175Z,6.00
2018-12-13T23:08:56.427Z,7.95
2018-12-13T23:11:32.577Z,8.83
2018-12-13T23:13:57.247Z,8.05
2018-12-13T23:16:26.827Z,8.05
2018-12-13T23:18:56.019Z,5.58
2018-12-13T23:21:25.664Z,6.05
2018-12-13T23:23:54.760Z,7.25
2018-12-13T23:26:23.935Z,5.80
2018-12-13T23:28:54.324Z,6.50
2018-12-13T23:31:24.706Z,5.97
2018-12-13T23:33:54.512Z,7.25
2018-12-13T23:36:23.776Z,6.40
2018-12-13T23:38:53.954Z,6.12
2018-12-13T23:41:23.443Z,8.48
2018-12-13T23:43:52.557Z,5.92
2018-12-13T23:46:21.742Z,5.95
2018-12-13T23:48:51.748Z,5.53
2018-12-13T23:51:21.071Z,6.45
2018-12-13T23:53:50.654Z,6.53
2018-12-13T23:56:21.383Z,5.85
2018-12-13T23:58:51.824Z,6.20
